This demonstration page uses our WeatherBlox Daily Observations layout. Learn more.

41.55636, -103.73856

Hourly Observations for October 26, 2019

Temp ( °F °C ) Dew Point ( °F °C ) Humidity (%) Winds ( mph kmh ) Pressure ( in mb ) Visibility ( mi km ) Precip ( " mm )
12:58 am 00:58 Clear 49 9.4 28 -2.2 44 44 SW 3 6 30.06 1018 10 16.0934 0 0
1:58 am 01:58 Clear 44 6.5 29 -1.8 56 56 SSW 9 15 30.06 1018 10 16.0934 0 0
2:58 am 02:58 Clear 45 7.2 28 -2.3 51 51 SW 10 17 30.01 1016 10 16.0934 0 0
3:58 am 03:58 Clear 45 7.3 28 -2 52 52 WSW 10 17 29.97 1015 10 16.0934 0 0
4:58 am 04:58 Clear 53 11.6 26 -3.4 35 35 W 9 15 29.91 1013 10 16.0934 0 0
5:58 am 05:58 Clear 47 8.2 26 -3.1 45 45 Calm 29.89 1012 10 16.0934 0 0
6:58 am 06:58 Clear 51 10.7 24 -4.5 34 34 WSW 16 26 29.84 1010 10 16.0934 0 0
7:58 am 07:58 Clear 50 9.9 23 -5.1 35 35 NW 5 7 29.82 1010 10 16.0934 0 0
8:58 am 08:58 Clear 46 7.7 24 -4.2 43 43 WSW 12 19 29.8 1009 10 16.0934 0 0
9:58 am 09:58 Clear 42 5.5 24 -4.2 50 50 SW 14 22 29.78 1008 10 16.0934 0 0
10:58 am 10:58 Clear 43 5.9 23 -4.8 47 47 SW 13 20 29.75 1008 10 16.0934 0 0
11:58 am 11:58 Clear 41 5.1 24 -4.7 50 50 SW 13 20 29.75 1008 10 16.0934 0 0
12:58 pm 12:58 Clear 42 5.5 23 -4.9 47 47 SSW 9 15 29.75 1008 10 16.0934 0 0
1:58 pm 13:58 Sunny 45 7.4 24 -4.4 43 43 WSW 7 11 29.75 1008 10 16.0934 0 0
2:58 pm 14:58 Sunny 55 13 28 -2.5 34 34 NW 5 7 29.73 1007 10 16.0934 0 0
3:58 pm 15:58 Mostly Sunny 62 16.5 27 -2.8 27 27 WNW 13 20 29.69 1006 10 16.0934 0 0
4:58 pm 16:58 Sunny 64 17.8 26 -3.5 23 23 NW 23 37 29.66 1004 10 16.0934 0 0
5:58 pm 17:58 Sunny 66 18.9 27 -3 23 23 NW 7 11 29.65 1004 10 16.0934 0 0
6:58 pm 18:58 Sunny 68 20.1 24 -4.6 19 19 NNW 21 33 29.62 1003 10 16.0934 0 0
7:58 pm 19:58 Sunny 68 20 28 -2.3 22 22 N 23 37 29.6 1003 10 16.0934 0 0
8:58 pm 20:58 Sunny 58 14.3 31 -0.7 36 36 NNE 22 35 29.7 1006 10 16.0934 0 0
9:58 pm 21:58 Sunny 50 10 29 -1.7 44 44 N 20 31 29.8 1009 10 16.0934 0 0
10:58 pm 22:58 Sunny 44 6.5 27 -2.6 53 53 N 21 33 29.8 1009 10 16.0934 0 0
11:58 pm 23:58 Mostly Cloudy 40 4.7 27 -2.7 59 59 N 15 24 29.88 1012 10 16.0934 0 0

Powered by AerisWeather